sensor_id;sensor_type;location;lat;lon;timestamp;P1;P2;P0
73305;PMS5003;61530;51.158;0.880;2023-06-19T00:00:23;40;40;25
73305;PMS5003;61530;51.158;0.880;2023-06-19T00:01:26;38;36;25
73305;PMS5003;61530;51.158;0.880;2023-06-19T00:02:29;36;35;21
73305;PMS5003;61530;51.158;0.880;2023-06-19T00:03:32;38;37;22
73305;PMS5003;61530;51.158;0.880;2023-06-19T00:04:35;39;38;24
73305;PMS5003;61530;51.158;0.880;2023-06-19T00:05:38;41;41;22
73305;PMS5003;61530;51.158;0.880;2023-06-19T00:06:41;39;38;24
73305;PMS5003;61530;51.158;0.880;2023-06-19T00:07:44;36;36;23
73305;PMS5003;61530;51.158;0.880;2023-06-19T00:08:47;38;38;24
73305;PMS5003;61530;51.158;0.880;2023-06-19T00:09:50;41;36;24
73305;PMS5003;61530;51.158;0.880;2023-06-19T00:10:53;35;34;20
73305;PMS5003;61530;51.158;0.880;2023-06-19T00:11:56;41;40;21
73305;PMS5003;61530;51.158;0.880;2023-06-19T00:12:59;42;42;25
73305;PMS5003;61530;51.158;0.880;2023-06-19T00:14:02;41;37;23
73305;PMS5003;61530;51.158;0.880;2023-06-19T00:15:05;41;38;22
73305;PMS5003;61530;51.158;0.880;2023-06-19T00:16:08;36;35;21
73305;PMS5003;61530;51.158;0.880;2023-06-19T00:17:11;37;33;21
73305;PMS5003;61530;51.158;0.880;2023-06-19T00:18:14;43;41;21
73305;PMS5003;61530;51.158;0.880;2023-06-19T00:19:17;35;33;22
73305;PMS5003;61530;51.158;0.880;2023-06-19T00:20:20;34;34;22
73305;PMS5003;61530;51.158;0.880;2023-06-19T00:21:23;35;35;21
73305;PMS5003;61530;51.158;0.880;2023-06-19T00:22:27;35;34;21
73305;PMS5003;61530;51.158;0.880;2023-06-19T00:23:30;41;38;23
73305;PMS5003;61530;51.158;0.880;2023-06-19T00:24:33;41;38;22
73305;PMS5003;61530;51.158;0.880;2023-06-19T00:25:36;41;37;25
73305;PMS5003;61530;51.158;0.880;2023-06-19T00:26:39;35;35;23
73305;PMS5003;61530;51.158;0.880;2023-06-19T00:27:42;40;37;22
73305;PMS5003;61530;51.158;0.880;2023-06-19T00:28:45;36;35;22
73305;PMS5003;61530;51.158;0.880;2023-06-19T00:29:48;45;39;23
73305;PMS5003;61530;51.158;0.880;2023-06-19T00:30:51;35;34;23
73305;PMS5003;61530;51.158;0.880;2023-06-19T00:31:54;38;36;23
73305;PMS5003;61530;51.158;0.880;2023-06-19T00:32:57;41;39;24
73305;PMS5003;61530;51.158;0.880;2023-06-19T00:34:00;41;35;20
73305;PMS5003;61530;51.158;0.880;2023-06-19T00:35:04;32;32;22
73305;PMS5003;61530;51.158;0.880;2023-06-19T00:36:08;36;35;21
73305;PMS5003;61530;51.158;0.880;2023-06-19T00:37:09;39;37;23
73305;PMS5003;61530;51.158;0.880;2023-06-19T00:38:12;41;40;25
73305;PMS5003;61530;51.158;0.880;2023-06-19T00:39:15;41;38;24
73305;PMS5003;61530;51.158;0.880;2023-06-19T00:40:21;37;36;24
73305;PMS5003;61530;51.158;0.880;2023-06-19T00:41:21;39;39;22
73305;PMS5003;61530;51.158;0.880;2023-06-19T00:42:24;40;39;23
73305;PMS5003;61530;51.158;0.880;2023-06-19T00:43:27;46;43;25
73305;PMS5003;61530;51.158;0.880;2023-06-19T00:44:30;44;42;24
73305;PMS5003;61530;51.158;0.880;2023-06-19T00:45:33;42;40;22
73305;PMS5003;61530;51.158;0.880;2023-06-19T00:46:37;44;41;24
73305;PMS5003;61530;51.158;0.880;2023-06-19T00:47:39;47;43;24
73305;PMS5003;61530;51.158;0.880;2023-06-19T00:48:42;41;38;24
73305;PMS5003;61530;51.158;0.880;2023-06-19T00:49:47;47;43;21
73305;PMS5003;61530;51.158;0.880;2023-06-19T00:50:51;45;43;23
73305;PMS5003;61530;51.158;0.880;2023-06-19T00:51:53;41;41;23
73305;PMS5003;61530;51.158;0.880;2023-06-19T00:52:56;44;41;23
73305;PMS5003;61530;51.158;0.880;2023-06-19T00:53:59;38;36;23
73305;PMS5003;61530;51.158;0.880;2023-06-19T00:55:03;41;41;23
73305;PMS5003;61530;51.158;0.880;2023-06-19T00:56:05;36;36;24
73305;PMS5003;61530;51.158;0.880;2023-06-19T00:57:08;40;38;24
73305;PMS5003;61530;51.158;0.880;2023-06-19T00:58:11;39;39;22
73305;PMS5003;61530;51.158;0.880;2023-06-19T00:59:15;40;39;23
73305;PMS5003;61530;51.158;0.880;2023-06-19T01:00:17;41;39;22
73305;PMS5003;61530;51.158;0.880;2023-06-19T01:01:20;41;36;24
73305;PMS5003;61530;51.158;0.880;2023-06-19T01:02:24;37;37;20
73305;PMS5003;61530;51.158;0.880;2023-06-19T01:03:26;42;38;23
73305;PMS5003;61530;51.158;0.880;2023-06-19T01:04:29;42;39;23
73305;PMS5003;61530;51.158;0.880;2023-06-19T01:05:32;46;43;25
73305;PMS5003;61530;51.158;0.880;2023-06-19T01:06:37;42;41;22
73305;PMS5003;61530;51.158;0.880;2023-06-19T01:07:40;37;34;22
73305;PMS5003;61530;51.158;0.880;2023-06-19T01:08:43;36;34;20
73305;PMS5003;61530;51.158;0.880;2023-06-19T01:09:46;44;43;25
73305;PMS5003;61530;51.158;0.880;2023-06-19T01:10:49;36;36;22
73305;PMS5003;61530;51.158;0.880;2023-06-19T01:11:51;40;38;23
73305;PMS5003;61530;51.158;0.880;2023-06-19T01:12:56;37;35;23
73305;PMS5003;61530;51.158;0.880;2023-06-19T01:13:58;35;35;20
73305;PMS5003;61530;51.158;0.880;2023-06-19T01:15:01;37;35;21
73305;PMS5003;61530;51.158;0.880;2023-06-19T01:16:02;39;33;22
73305;PMS5003;61530;51.158;0.880;2023-06-19T01:17:05;42;39;23
73305;PMS5003;61530;51.158;0.880;2023-06-19T01:18:08;36;35;20
73305;PMS5003;61530;51.158;0.880;2023-06-19T01:19:11;46;39;21
73305;PMS5003;61530;51.158;0.880;2023-06-19T01:20:14;40;39;24
73305;PMS5003;61530;51.158;0.880;2023-06-19T01:21:18;37;34;21
73305;PMS5003;61530;51.158;0.880;2023-06-19T01:22:25;34;31;19
73305;PMS5003;61530;51.158;0.880;2023-06-19T01:23:23;36;35;21
73305;PMS5003;61530;51.158;0.880;2023-06-19T01:24:26;48;45;23
73305;PMS5003;61530;51.158;0.880;2023-06-19T01:25:30;37;36;22
73305;PMS5003;61530;51.158;0.880;2023-06-19T01:26:33;41;38;20
73305;PMS5003;61530;51.158;0.880;2023-06-19T01:27:36;36;35;21
73305;PMS5003;61530;51.158;0.880;2023-06-19T01:28:40;40;38;20
73305;PMS5003;61530;51.158;0.880;2023-06-19T01:29:42;36;34;24
73305;PMS5003;61530;51.158;0.880;2023-06-19T01:30:44;33;33;19
73305;PMS5003;61530;51.158;0.880;2023-06-19T01:31:49;39;38;21
73305;PMS5003;61530;51.158;0.880;2023-06-19T01:32:52;37;37;19
73305;PMS5003;61530;51.158;0.880;2023-06-19T01:33:54;42;37;20
73305;PMS5003;61530;51.158;0.880;2023-06-19T01:34:57;36;36;22
73305;PMS5003;61530;51.158;0.880;2023-06-19T01:36:00;43;39;20
73305;PMS5003;61530;51.158;0.880;2023-06-19T01:37:03;36;33;20
73305;PMS5003;61530;51.158;0.880;2023-06-19T01:38:06;33;30;18
73305;PMS5003;61530;51.158;0.880;2023-06-19T01:39:08;37;34;21
73305;PMS5003;61530;51.158;0.880;2023-06-19T01:40:11;39;38;23
73305;PMS5003;61530;51.158;0.880;2023-06-19T01:41:15;36;35;20
73305;PMS5003;61530;51.158;0.880;2023-06-19T01:42:18;38;35;22
73305;PMS5003;61530;51.158;0.880;2023-06-19T01:43:21;34;31;21
73305;PMS5003;61530;51.158;0.880;2023-06-19T01:44:24;42;40;21
73305;PMS5003;61530;51.158;0.880;2023-06-19T01:45:27;39;38;19
73305;PMS5003;61530;51.158;0.880;2023-06-19T01:46:30;37;36;20
73305;PMS5003;61530;51.158;0.880;2023-06-19T01:47:32;37;36;25
73305;PMS5003;61530;51.158;0.880;2023-06-19T01:48:37;35;31;22
73305;PMS5003;61530;51.158;0.880;2023-06-19T01:49:39;34;34;19
73305;PMS5003;61530;51.158;0.880;2023-06-19T01:50:44;32;31;19
73305;PMS5003;61530;51.158;0.880;2023-06-19T01:51:45;36;31;18
73305;PMS5003;61530;51.158;0.880;2023-06-19T01:52:48;40;36;21
73305;PMS5003;61530;51.158;0.880;2023-06-19T01:53:51;35;31;19
73305;PMS5003;61530;51.158;0.880;2023-06-19T01:54:54;37;36;19
73305;PMS5003;61530;51.158;0.880;2023-06-19T01:55:57;32;32;20
73305;PMS5003;61530;51.158;0.880;2023-06-19T01:57:00;29;29;19
73305;PMS5003;61530;51.158;0.880;2023-06-19T01:58:03;35;31;17
73305;PMS5003;61530;51.158;0.880;2023-06-19T01:59:06;34;33;18
73305;PMS5003;61530;51.158;0.880;2023-06-19T02:00:09;36;35;20
73305;PMS5003;61530;51.158;0.880;2023-06-19T02:01:12;33;31;18
73305;PMS5003;61530;51.158;0.880;2023-06-19T02:02:15;31;30;20
73305;PMS5003;61530;51.158;0.880;2023-06-19T02:03:18;38;35;19
73305;PMS5003;61530;51.158;0.880;2023-06-19T02:04:21;37;37;22
73305;PMS5003;61530;51.158;0.880;2023-06-19T02:05:24;36;32;17
73305;PMS5003;61530;51.158;0.880;2023-06-19T02:06:29;34;33;19
73305;PMS5003;61530;51.158;0.880;2023-06-19T02:07:30;32;31;18
73305;PMS5003;61530;51.158;0.880;2023-06-19T02:08:33;38;34;21
73305;PMS5003;61530;51.158;0.880;2023-06-19T02:09:37;35;33;18
73305;PMS5003;61530;51.158;0.880;2023-06-19T02:10:39;27;27;17
73305;PMS5003;61530;51.158;0.880;2023-06-19T02:11:42;33;33;18
73305;PMS5003;61530;51.158;0.880;2023-06-19T02:12:45;36;34;20
73305;PMS5003;61530;51.158;0.880;2023-06-19T02:13:48;35;33;18
73305;PMS5003;61530;51.158;0.880;2023-06-19T02:14:51;33;32;18
73305;PMS5003;61530;51.158;0.880;2023-06-19T02:15:54;31;29;20
73305;PMS5003;61530;51.158;0.880;2023-06-19T02:16:57;36;33;19
73305;PMS5003;61530;51.158;0.880;2023-06-19T02:18:00;42;37;20
73305;PMS5003;61530;51.158;0.880;2023-06-19T02:19:03;32;32;21
73305;PMS5003;61530;51.158;0.880;2023-06-19T02:20:07;31;28;18
73305;PMS5003;61530;51.158;0.880;2023-06-19T02:21:09;35;34;19
73305;PMS5003;61530;51.158;0.880;2023-06-19T02:22:12;33;32;17
73305;PMS5003;61530;51.158;0.880;2023-06-19T02:23:16;36;33;18
73305;PMS5003;61530;51.158;0.880;2023-06-19T02:24:19;35;32;16
73305;PMS5003;61530;51.158;0.880;2023-06-19T02:25:22;37;36;21
73305;PMS5003;61530;51.158;0.880;2023-06-19T02:26:25;31;29;17
73305;PMS5003;61530;51.158;0.880;2023-06-19T02:27:28;30;29;16
73305;PMS5003;61530;51.158;0.880;2023-06-19T02:28:31;40;38;18
73305;PMS5003;61530;51.158;0.880;2023-06-19T02:29:34;38;37;20
73305;PMS5003;61530;51.158;0.880;2023-06-19T02:30:37;32;29;18
73305;PMS5003;61530;51.158;0.880;2023-06-19T02:31:40;38;37;19
73305;PMS5003;61530;51.158;0.880;2023-06-19T02:32:43;34;31;18
73305;PMS5003;61530;51.158;0.880;2023-06-19T02:33:46;35;34;21
73305;PMS5003;61530;51.158;0.880;2023-06-19T02:34:49;32;32;19
73305;PMS5003;61530;51.158;0.880;2023-06-19T02:35:52;41;33;19
73305;PMS5003;61530;51.158;0.880;2023-06-19T02:36:55;31;31;17
73305;PMS5003;61530;51.158;0.880;2023-06-19T02:37:58;33;31;17
73305;PMS5003;61530;51.158;0.880;2023-06-19T02:39:03;36;33;18
73305;PMS5003;61530;51.158;0.880;2023-06-19T02:40:05;35;33;19
73305;PMS5003;61530;51.158;0.880;2023-06-19T02:41:07;35;33;17
73305;PMS5003;61530;51.158;0.880;2023-06-19T02:42:10;32;31;20
73305;PMS5003;61530;51.158;0.880;2023-06-19T02:43:13;34;31;20
73305;PMS5003;61530;51.158;0.880;2023-06-19T02:44:18;40;34;21
73305;PMS5003;61530;51.158;0.880;2023-06-19T02:45:21;35;32;20
73305;PMS5003;61530;51.158;0.880;2023-06-19T02:46:24;34;33;19
73305;PMS5003;61530;51.158;0.880;2023-06-19T02:47:27;34;30;18
73305;PMS5003;61530;51.158;0.880;2023-06-19T02:48:30;30;28;18
73305;PMS5003;61530;51.158;0.880;2023-06-19T02:49:33;34;34;19
73305;PMS5003;61530;51.158;0.880;2023-06-19T02:50:36;32;28;18
73305;PMS5003;61530;51.158;0.880;2023-06-19T02:51:39;38;34;20
73305;PMS5003;61530;51.158;0.880;2023-06-19T02:52:42;34;29;17
73305;PMS5003;61530;51.158;0.880;2023-06-19T02:53:45;33;32;19
73305;PMS5003;61530;51.158;0.880;2023-06-19T02:54:48;34;31;17
73305;PMS5003;61530;51.158;0.880;2023-06-19T02:55:51;35;31;18
73305;PMS5003;61530;51.158;0.880;2023-06-19T02:56:54;33;31;19
73305;PMS5003;61530;51.158;0.880;2023-06-19T02:57:57;31;29;17
73305;PMS5003;61530;51.158;0.880;2023-06-19T02:59:00;29;28;18
73305;PMS5003;61530;51.158;0.880;2023-06-19T03:00:04;31;31;17
73305;PMS5003;61530;51.158;0.880;2023-06-19T03:01:06;36;35;19
73305;PMS5003;61530;51.158;0.880;2023-06-19T03:02:09;31;29;17
73305;PMS5003;61530;51.158;0.880;2023-06-19T03:03:12;33;31;18
73305;PMS5003;61530;51.158;0.880;2023-06-19T03:04:15;38;33;17
73305;PMS5003;61530;51.158;0.880;2023-06-19T03:05:18;29;28;17
73305;PMS5003;61530;51.158;0.880;2023-06-19T03:06:21;32;31;20
73305;PMS5003;61530;51.158;0.880;2023-06-19T03:07:24;32;31;18
73305;PMS5003;61530;51.158;0.880;2023-06-19T03:08:27;41;37;21
73305;PMS5003;61530;51.158;0.880;2023-06-19T03:09:30;33;27;18
73305;PMS5003;61530;51.158;0.880;2023-06-19T03:10:34;32;30;19
73305;PMS5003;61530;51.158;0.880;2023-06-19T03:11:37;32;29;18
73305;PMS5003;61530;51.158;0.880;2023-06-19T03:12:40;33;30;17
73305;PMS5003;61530;51.158;0.880;2023-06-19T03:13:44;32;29;18
73305;PMS5003;61530;51.158;0.880;2023-06-19T03:14:46;34;31;19
73305;PMS5003;61530;51.158;0.880;2023-06-19T03:15:48;40;36;18
73305;PMS5003;61530;51.158;0.880;2023-06-19T03:16:51;31;31;16
73305;PMS5003;61530;51.158;0.880;2023-06-19T03:17:55;35;33;18
73305;PMS5003;61530;51.158;0.880;2023-06-19T03:18:58;37;35;19
73305;PMS5003;61530;51.158;0.880;2023-06-19T03:20:01;38;33;20
73305;PMS5003;61530;51.158;0.880;2023-06-19T03:21:04;29;27;17
73305;PMS5003;61530;51.158;0.880;2023-06-19T03:22:07;32;30;16
73305;PMS5003;61530;51.158;0.880;2023-06-19T03:23:10;32;31;19
73305;PMS5003;61530;51.158;0.880;2023-06-19T03:24:13;31;28;19
73305;PMS5003;61530;51.158;0.880;2023-06-19T03:25:15;33;30;17
73305;PMS5003;61530;51.158;0.880;2023-06-19T03:26:18;25;25;16
73305;PMS5003;61530;51.158;0.880;2023-06-19T03:27:22;35;34;18
73305;PMS5003;61530;51.158;0.880;2023-06-19T03:28:25;34;32;16
73305;PMS5003;61530;51.158;0.880;2023-06-19T03:29:28;29;28;17
73305;PMS5003;61530;51.158;0.880;2023-06-19T03:30:30;31;28;16
73305;PMS5003;61530;51.158;0.880;2023-06-19T03:31:34;33;27;15
73305;PMS5003;61530;51.158;0.880;2023-06-19T03:32:36;38;34;17
73305;PMS5003;61530;51.158;0.880;2023-06-19T03:33:39;38;34;19
73305;PMS5003;61530;51.158;0.880;2023-06-19T03:34:43;30;28;17
73305;PMS5003;61530;51.158;0.880;2023-06-19T03:35:46;32;30;19
73305;PMS5003;61530;51.158;0.880;2023-06-19T03:36:49;31;29;16
73305;PMS5003;61530;51.158;0.880;2023-06-19T03:37:52;31;30;18
73305;PMS5003;61530;51.158;0.880;2023-06-19T03:38:55;33;29;16
73305;PMS5003;61530;51.158;0.880;2023-06-19T03:39:58;38;30;18
73305;PMS5003;61530;51.158;0.880;2023-06-19T03:41:01;34;32;17
73305;PMS5003;61530;51.158;0.880;2023-06-19T03:42:05;33;31;16
73305;PMS5003;61530;51.158;0.880;2023-06-19T03:43:07;31;30;19
73305;PMS5003;61530;51.158;0.880;2023-06-19T03:44:10;32;30;16
73305;PMS5003;61530;51.158;0.880;2023-06-19T03:45:13;37;28;17
73305;PMS5003;61530;51.158;0.880;2023-06-19T03:46:16;34;31;15
73305;PMS5003;61530;51.158;0.880;2023-06-19T03:47:19;32;31;21
73305;PMS5003;61530;51.158;0.880;2023-06-19T03:48:22;31;31;16
73305;PMS5003;61530;51.158;0.880;2023-06-19T03:49:25;31;26;16
73305;PMS5003;61530;51.158;0.880;2023-06-19T03:50:28;27;27;15
73305;PMS5003;61530;51.158;0.880;2023-06-19T03:51:32;29;28;16
73305;PMS5003;61530;51.158;0.880;2023-06-19T03:52:34;29;27;17
73305;PMS5003;61530;51.158;0.880;2023-06-19T03:53:37;30;30;16
73305;PMS5003;61530;51.158;0.880;2023-06-19T03:54:40;34;32;16
73305;PMS5003;61530;51.158;0.880;2023-06-19T03:55:43;31;31;18
73305;PMS5003;61530;51.158;0.880;2023-06-19T03:56:46;31;27;16
73305;PMS5003;61530;51.158;0.880;2023-06-19T03:57:49;35;34;18
73305;PMS5003;61530;51.158;0.880;2023-06-19T03:58:52;30;27;15
73305;PMS5003;61530;51.158;0.880;2023-06-19T03:59:56;29;29;17
73305;PMS5003;61530;51.158;0.880;2023-06-19T04:00:58;34;31;17
73305;PMS5003;61530;51.158;0.880;2023-06-19T04:02:02;27;24;15
73305;PMS5003;61530;51.158;0.880;2023-06-19T04:03:04;31;31;15
73305;PMS5003;61530;51.158;0.880;2023-06-19T04:04:07;29;26;16
73305;PMS5003;61530;51.158;0.880;2023-06-19T04:05:10;24;22;14
73305;PMS5003;61530;51.158;0.880;2023-06-19T04:06:13;32;30;16
73305;PMS5003;61530;51.158;0.880;2023-06-19T04:07:16;25;25;15
73305;PMS5003;61530;51.158;0.880;2023-06-19T04:08:19;27;24;17
73305;PMS5003;61530;51.158;0.880;2023-06-19T04:09:22;28;26;17
73305;PMS5003;61530;51.158;0.880;2023-06-19T04:10:25;35;30;16
73305;PMS5003;61530;51.158;0.880;2023-06-19T04:11:28;26;26;15
73305;PMS5003;61530;51.158;0.880;2023-06-19T04:12:31;32;30;16
73305;PMS5003;61530;51.158;0.880;2023-06-19T04:13:34;32;31;14
73305;PMS5003;61530;51.158;0.880;2023-06-19T04:14:37;32;28;14
73305;PMS5003;61530;51.158;0.880;2023-06-19T04:15:40;33;25;15
73305;PMS5003;61530;51.158;0.880;2023-06-19T04:16:43;34;30;15
73305;PMS5003;61530;51.158;0.880;2023-06-19T04:17:46;28;24;16
73305;PMS5003;61530;51.158;0.880;2023-06-19T04:18:49;33;29;17
73305;PMS5003;61530;51.158;0.880;2023-06-19T04:19:52;31;30;17
73305;PMS5003;61530;51.158;0.880;2023-06-19T04:20:55;27;27;16
73305;PMS5003;61530;51.158;0.880;2023-06-19T04:21:58;38;34;17
73305;PMS5003;61530;51.158;0.880;2023-06-19T04:23:02;31;29;15
73305;PMS5003;61530;51.158;0.880;2023-06-19T04:24:04;30;28;18
73305;PMS5003;61530;51.158;0.880;2023-06-19T04:25:08;25;25;15
73305;PMS5003;61530;51.158;0.880;2023-06-19T04:26:10;29;26;17
73305;PMS5003;61530;51.158;0.880;2023-06-19T04:27:13;28;25;17
73305;PMS5003;61530;51.158;0.880;2023-06-19T04:28:16;25;22;13
73305;PMS5003;61530;51.158;0.880;2023-06-19T04:29:19;24;22;12
73305;PMS5003;61530;51.158;0.880;2023-06-19T04:30:22;30;28;16
73305;PMS5003;61530;51.158;0.880;2023-06-19T04:31:25;30;27;15
73305;PMS5003;61530;51.158;0.880;2023-06-19T04:32:28;29;26;16
73305;PMS5003;61530;51.158;0.880;2023-06-19T04:33:31;31;29;16
73305;PMS5003;61530;51.158;0.880;2023-06-19T04:34:34;28;26;17
73305;PMS5003;61530;51.158;0.880;2023-06-19T04:35:37;29;28;14
73305;PMS5003;61530;51.158;0.880;2023-06-19T04:36:40;28;28;16
73305;PMS5003;61530;51.158;0.880;2023-06-19T04:37:43;25;25;17
73305;PMS5003;61530;51.158;0.880;2023-06-19T04:38:46;29;27;14
73305;PMS5003;61530;51.158;0.880;2023-06-19T04:39:49;28;26;14
73305;PMS5003;61530;51.158;0.880;2023-06-19T04:40:54;29;29;18
73305;PMS5003;61530;51.158;0.880;2023-06-19T04:41:58;28;27;17
73305;PMS5003;61530;51.158;0.880;2023-06-19T04:43:01;31;26;16
73305;PMS5003;61530;51.158;0.880;2023-06-19T04:44:04;31;30;16
73305;PMS5003;61530;51.158;0.880;2023-06-19T04:45:07;31;30;17
73305;PMS5003;61530;51.158;0.880;2023-06-19T04:46:10;29;26;16
73305;PMS5003;61530;51.158;0.880;2023-06-19T04:47:13;34;31;15
73305;PMS5003;61530;51.158;0.880;2023-06-19T04:48:16;29;29;15
73305;PMS5003;61530;51.158;0.880;2023-06-19T04:49:20;31;30;17
73305;PMS5003;61530;51.158;0.880;2023-06-19T04:50:23;28;27;18
73305;PMS5003;61530;51.158;0.880;2023-06-19T04:51:26;32;27;15
73305;PMS5003;61530;51.158;0.880;2023-06-19T04:52:29;23;23;15
73305;PMS5003;61530;51.158;0.880;2023-06-19T04:53:32;27;24;14
73305;PMS5003;61530;51.158;0.880;2023-06-19T04:54:35;26;26;17
73305;PMS5003;61530;51.158;0.880;2023-06-19T04:55:38;28;27;15
73305;PMS5003;61530;51.158;0.880;2023-06-19T04:56:41;35;30;16
73305;PMS5003;61530;51.158;0.880;2023-06-19T04:57:44;26;26;16
73305;PMS5003;61530;51.158;0.880;2023-06-19T04:58:47;29;28;17
73305;PMS5003;61530;51.158;0.880;2023-06-19T04:59:50;25;25;15
73305;PMS5003;61530;51.158;0.880;2023-06-19T05:00:53;26;23;14
73305;PMS5003;61530;51.158;0.880;2023-06-19T05:01:56;31;27;15
73305;PMS5003;61530;51.158;0.880;2023-06-19T05:02:59;30;26;15
73305;PMS5003;61530;51.158;0.880;2023-06-19T05:04:02;28;27;16
73305;PMS5003;61530;51.158;0.880;2023-06-19T05:05:05;28;24;15
73305;PMS5003;61530;51.158;0.880;2023-06-19T05:06:08;31;28;17
73305;PMS5003;61530;51.158;0.880;2023-06-19T05:07:11;27;26;15
73305;PMS5003;61530;51.158;0.880;2023-06-19T05:08:14;25;25;15
73305;PMS5003;61530;51.158;0.880;2023-06-19T05:09:17;30;28;15
73305;PMS5003;61530;51.158;0.880;2023-06-19T05:10:20;30;25;15
73305;PMS5003;61530;51.158;0.880;2023-06-19T05:11:23;29;26;14
73305;PMS5003;61530;51.158;0.880;2023-06-19T05:12:26;27;27;17
73305;PMS5003;61530;51.158;0.880;2023-06-19T05:13:29;29;27;17
73305;PMS5003;61530;51.158;0.880;2023-06-19T05:14:32;35;26;15
73305;PMS5003;61530;51.158;0.880;2023-06-19T05:15:35;31;26;15
73305;PMS5003;61530;51.158;0.880;2023-06-19T05:16:38;29;27;17
73305;PMS5003;61530;51.158;0.880;2023-06-19T05:17:41;30;26;16
73305;PMS5003;61530;51.158;0.880;2023-06-19T05:18:44;26;26;14
73305;PMS5003;61530;51.158;0.880;2023-06-19T05:19:47;29;29;15
73305;PMS5003;61530;51.158;0.880;2023-06-19T05:20:50;23;21;15
73305;PMS5003;61530;51.158;0.880;2023-06-19T05:21:53;32;31;15
73305;PMS5003;61530;51.158;0.880;2023-06-19T05:22:56;26;24;16
73305;PMS5003;61530;51.158;0.880;2023-06-19T05:23:59;29;26;16
73305;PMS5003;61530;51.158;0.880;2023-06-19T05:25:03;23;23;14
73305;PMS5003;61530;51.158;0.880;2023-06-19T05:26:05;36;33;17
73305;PMS5003;61530;51.158;0.880;2023-06-19T05:27:08;40;33;18
73305;PMS5003;61530;51.158;0.880;2023-06-19T05:28:11;32;30;15
73305;PMS5003;61530;51.158;0.880;2023-06-19T05:29:14;27;25;16
73305;PMS5003;61530;51.158;0.880;2023-06-19T05:30:17;34;30;16
73305;PMS5003;61530;51.158;0.880;2023-06-19T05:31:20;30;28;15
73305;PMS5003;61530;51.158;0.880;2023-06-19T05:32:23;28;25;16
73305;PMS5003;61530;51.158;0.880;2023-06-19T05:33:26;36;33;16
73305;PMS5003;61530;51.158;0.880;2023-06-19T05:34:29;28;28;16
73305;PMS5003;61530;51.158;0.880;2023-06-19T05:35:32;25;22;15
73305;PMS5003;61530;51.158;0.880;2023-06-19T05:36:35;32;29;16
73305;PMS5003;61530;51.158;0.880;2023-06-19T05:37:38;25;25;15
73305;PMS5003;61530;51.158;0.880;2023-06-19T05:38:42;27;24;14
73305;PMS5003;61530;51.158;0.880;2023-06-19T05:39:44;25;25;15
73305;PMS5003;61530;51.158;0.880;2023-06-19T05:40:47;28;25;15
73305;PMS5003;61530;51.158;0.880;2023-06-19T05:41:50;34;31;17
73305;PMS5003;61530;51.158;0.880;2023-06-19T05:42:54;32;26;17
73305;PMS5003;61530;51.158;0.880;2023-06-19T05:43:56;37;32;16
73305;PMS5003;61530;51.158;0.880;2023-06-19T05:44:59;27;24;16
73305;PMS5003;61530;51.158;0.880;2023-06-19T05:46:02;32;29;14
73305;PMS5003;61530;51.158;0.880;2023-06-19T05:47:06;29;26;15
73305;PMS5003;61530;51.158;0.880;2023-06-19T05:48:09;32;30;16
73305;PMS5003;61530;51.158;0.880;2023-06-19T05:49:12;28;24;14
73305;PMS5003;61530;51.158;0.880;2023-06-19T05:50:15;26;26;14
73305;PMS5003;61530;51.158;0.880;2023-06-19T05:51:17;29;27;14
73305;PMS5003;61530;51.158;0.880;2023-06-19T05:52:20;28;24;14
73305;PMS5003;61530;51.158;0.880;2023-06-19T05:53:23;32;30;15
73305;PMS5003;61530;51.158;0.880;2023-06-19T05:54:27;32;29;15
73305;PMS5003;61530;51.158;0.880;2023-06-19T05:55:30;24;24;15
73305;PMS5003;61530;51.158;0.880;2023-06-19T05:56:33;35;34;23
73305;PMS5003;61530;51.158;0.880;2023-06-19T05:57:36;30;27;16
73305;PMS5003;61530;51.158;0.880;2023-06-19T05:58:38;25;21;14
73305;PMS5003;61530;51.158;0.880;2023-06-19T05:59:42;33;30;17
73305;PMS5003;61530;51.158;0.880;2023-06-19T06:00:45;27;26;16
73305;PMS5003;61530;51.158;0.880;2023-06-19T06:01:48;33;32;15
73305;PMS5003;61530;51.158;0.880;2023-06-19T06:02:51;25;23;15
73305;PMS5003;61530;51.158;0.880;2023-06-19T06:03:54;29;26;13
73305;PMS5003;61530;51.158;0.880;2023-06-19T06:04:57;32;31;17
73305;PMS5003;61530;51.158;0.880;2023-06-19T06:06:00;24;23;14
73305;PMS5003;61530;51.158;0.880;2023-06-19T06:07:03;31;31;17
73305;PMS5003;61530;51.158;0.880;2023-06-19T06:08:06;33;26;16
73305;PMS5003;61530;51.158;0.880;2023-06-19T06:09:09;26;24;14
73305;PMS5003;61530;51.158;0.880;2023-06-19T06:10:12;25;23;15
73305;PMS5003;61530;51.158;0.880;2023-06-19T06:11:15;24;22;15
73305;PMS5003;61530;51.158;0.880;2023-06-19T06:12:18;23;22;13
73305;PMS5003;61530;51.158;0.880;2023-06-19T06:13:21;31;28;15
73305;PMS5003;61530;51.158;0.880;2023-06-19T06:14:25;27;24;16
73305;PMS5003;61530;51.158;0.880;2023-06-19T06:15:27;25;25;14
73305;PMS5003;61530;51.158;0.880;2023-06-19T06:16:30;25;22;13
73305;PMS5003;61530;51.158;0.880;2023-06-19T06:17:33;31;27;14
73305;PMS5003;61530;51.158;0.880;2023-06-19T06:18:36;30;26;15
73305;PMS5003;61530;51.158;0.880;2023-06-19T06:19:39;33;32;17
73305;PMS5003;61530;51.158;0.880;2023-06-19T06:20:42;25;23;14
73305;PMS5003;61530;51.158;0.880;2023-06-19T06:21:45;24;22;14
73305;PMS5003;61530;51.158;0.880;2023-06-19T06:22:48;24;24;14
73305;PMS5003;61530;51.158;0.880;2023-06-19T06:23:51;29;27;16
73305;PMS5003;61530;51.158;0.880;2023-06-19T06:24:54;26;22;15
73305;PMS5003;61530;51.158;0.880;2023-06-19T06:25:57;24;22;13
73305;PMS5003;61530;51.158;0.880;2023-06-19T06:27:00;26;26;16
73305;PMS5003;61530;51.158;0.880;2023-06-19T06:28:03;25;23;12
73305;PMS5003;61530;51.158;0.880;2023-06-19T06:29:06;27;27;15
73305;PMS5003;61530;51.158;0.880;2023-06-19T06:30:10;21;20;12
73305;PMS5003;61530;51.158;0.880;2023-06-19T06:31:12;26;22;13
73305;PMS5003;61530;51.158;0.880;2023-06-19T06:32:15;31;26;14
73305;PMS5003;61530;51.158;0.880;2023-06-19T06:33:18;32;27;15
73305;PMS5003;61530;51.158;0.880;2023-06-19T06:34:21;25;23;13
73305;PMS5003;61530;51.158;0.880;2023-06-19T06:35:24;26;23;12
73305;PMS5003;61530;51.158;0.880;2023-06-19T06:36:27;24;21;12
73305;PMS5003;61530;51.158;0.880;2023-06-19T06:37:30;31;29;14
73305;PMS5003;61530;51.158;0.880;2023-06-19T06:38:33;26;24;12
73305;PMS5003;61530;51.158;0.880;2023-06-19T06:39:36;25;23;15
73305;PMS5003;61530;51.158;0.880;2023-06-19T06:40:39;32;30;13
73305;PMS5003;61530;51.158;0.880;2023-06-19T06:41:42;31;27;13
73305;PMS5003;61530;51.158;0.880;2023-06-19T06:42:45;29;23;15
73305;PMS5003;61530;51.158;0.880;2023-06-19T06:43:48;28;25;17
73305;PMS5003;61530;51.158;0.880;2023-06-19T06:44:51;28;27;15